Details From KLBB - LUBBOCK PRESTON SMITH INTL
To KMDD - MIDLAND AIRPARK
Flight Number -
Tags generated
Created
Modified
Stats Distance 99 nm / 184 km
Max Altitude 10,700 ft / 3,261 m
Waypoints 3
Social Downloads 1
Likes 0
Share VATSIM

Download

Looking for another format? Having issues loading an existing format? Contact us
Advertisement - Login to hide

Notes

Basic altitude profile: - Ascent Rate: 2500ft/min - Ascent Speed: 250kts - Cruise Altitude: 35000ft - Cruise Speed: 420kts - Descent Rate: 1500ft/min - Descent Speed: 250kts Options: - Use NATs: yes - Use PACOTS: yes - Use low airways: yes - Use high airways: yes

Route

KLBB WELCH KMDD

ID Type Via Altitude Latitude Longitude Leg Dist Tot Dist Heading (true) Name
O KLBB APT - 0 ft / 0 m 33.66156˚ -101.82068˚ - 0 nm - LUBBOCK PRESTON SMITH INTL
WELCH FIX - 10,700 ft / 3,261 m 32.94944˚ -102.03857˚ 44 nm 44 nm 194° / 194° -
O KMDD APT - 0 ft / 0 m 32.03619˚ -102.10102˚ 54 nm 99 nm 183° / 183° MIDLAND AIRPARK

Altitude Profile

Advertisement - Login to hide

KLBB

Details ICAO KLBB (LBB)
Name LUBBOCK PRESTON SMITH INTL
Region United States
Timezone America/Chicago (UTC-6.0)
Stats Elevation 3,282 ft / 1,000 m (AMSL)
Location 33.661557° -101.820684°
Runways 3
Magnetic Variation 6.146° E

METAR

KLBB 102353Z 30003KT 10SM SCT250 BKN300 14/M14 A3034 RMK AO2 SLP272 BKN LYR THN T01391139 10211 20139 55001 $

Decode

TAF

KLBB 102324Z 1100/1124 27008KT P6SM SCT250 FM111800 32011KT P6SM SKC

Decode

Departure Runways

ID Width Length Bearing (true) Bearing (mag) Surface Threshold Offset Overrun Length
08 150 ft / 46 m 7,985 ft / 2,434 m 89.66° 83.51° Concrete 200 ft / 61 m 0 ft / 0 m
17L 75 ft / 23 m 2,899 ft / 884 m 179.65° 173.50° Asphalt 0 ft / 0 m 0 ft / 0 m
17R 150 ft / 46 m 11,530 ft / 3,514 m 179.67° 173.52° Concrete 0 ft / 0 m 0 ft / 0 m
26 150 ft / 46 m 7,985 ft / 2,434 m 269.67° 263.52° Concrete 0 ft / 0 m 0 ft / 0 m
35L 150 ft / 46 m 11,530 ft / 3,514 m 359.67° 353.52° Concrete 0 ft / 0 m 0 ft / 0 m
35R 75 ft / 23 m 2,899 ft / 884 m 359.65° 353.50° Asphalt 0 ft / 0 m 0 ft / 0 m

KMDD

Details ICAO KMDD
Name MIDLAND AIRPARK
Region United States
Timezone America/Chicago (UTC-6.0)
Stats Elevation 2,803 ft / 854 m (AMSL)
Location 32.036194° -102.101022°
Runways 2
Magnetic Variation 6.205° E

METAR

KMDD 110015Z AUTO 22005KT 10SM CLR 15/M06 A3039 RMK AO2 T01471063

Decode

TAF

Not found

Destination Runways

ID Width Length Bearing (true) Bearing (mag) Surface Threshold Offset Overrun Length
07 75 ft / 23 m 5,014 ft / 1,528 m 74.89° 68.69° Asphalt 0 ft / 0 m 0 ft / 0 m
16 75 ft / 23 m 3,988 ft / 1,216 m 165.00° 158.80° Asphalt 0 ft / 0 m 0 ft / 0 m
25 75 ft / 23 m 5,014 ft / 1,528 m 254.90° 248.70° Asphalt 0 ft / 0 m 0 ft / 0 m
34 75 ft / 23 m 3,988 ft / 1,216 m 345.00° 338.80° Asphalt 0 ft / 0 m 0 ft / 0 m